createdAt,value
2019-06-10T00:01:31.340Z,4.40
2019-06-10T00:04:07.980Z,3.95
2019-06-10T00:06:37.127Z,4.50
2019-06-10T00:09:11.715Z,4.42
2019-06-10T00:11:42.689Z,5.25
2019-06-10T00:14:14.525Z,4.58
2019-06-10T00:16:46.299Z,6.72
2019-06-10T00:19:21.709Z,4.00
2019-06-10T00:21:52.657Z,4.55
2019-06-10T00:24:24.775Z,6.42
2019-06-10T00:26:57.759Z,3.42
2019-06-10T00:29:31.235Z,6.67
2019-06-10T00:32:05.350Z,4.00
2019-06-10T00:34:36.698Z,6.35
2019-06-10T00:37:13.566Z,13.35
2019-06-10T00:39:41.897Z,13.28
2019-06-10T00:42:15.015Z,8.93
2019-06-10T00:44:47.230Z,7.50
2019-06-10T00:47:21.039Z,9.03
2019-06-10T00:49:52.820Z,7.80
2019-06-10T00:52:24.541Z,8.75
2019-06-10T00:54:56.297Z,9.25
2019-06-10T00:57:28.012Z,5.92
2019-06-10T01:00:03.306Z,8.23
2019-06-10T01:02:33.295Z,4.40
2019-06-10T01:05:05.159Z,4.28
2019-06-10T01:07:37.886Z,6.67
2019-06-10T01:10:12.897Z,3.70
2019-06-10T01:12:44.168Z,3.92
2019-06-10T01:15:15.907Z,6.72
2019-06-10T01:17:47.635Z,5.45
2019-06-10T01:20:21.062Z,4.72
2019-06-10T01:22:52.818Z,4.12
2019-06-10T01:25:24.790Z,4.58
2019-06-10T01:27:56.515Z,8.48
2019-06-10T01:30:31.071Z,4.47
2019-06-10T01:33:02.949Z,6.25
2019-06-10T01:35:34.669Z,7.33
2019-06-10T01:38:07.816Z,5.15
2019-06-10T01:40:41.865Z,7.42
2019-06-10T01:43:16.473Z,6.45
2019-06-10T01:45:46.468Z,6.42
2019-06-10T01:48:18.230Z,7.15
2019-06-10T01:50:51.243Z,4.15
2019-06-10T01:53:23.412Z,6.78
2019-06-10T01:55:55.130Z,10.40
2019-06-10T01:58:26.827Z,6.40
2019-06-10T02:01:15.448Z,5.40
2019-06-10T02:03:47.220Z,5.47
2019-06-10T02:06:22.162Z,7.35
2019-06-10T02:08:55.383Z,4.53
2019-06-10T02:11:28.712Z,5.75
2019-06-10T02:14:00.906Z,5.55
2019-06-10T02:16:32.656Z,5.78
2019-06-10T02:19:04.746Z,5.30
2019-06-10T02:21:36.467Z,6.03
2019-06-10T02:24:08.209Z,3.72
2019-06-10T02:26:41.100Z,5.22
2019-06-10T02:29:14.416Z,6.30
2019-06-10T02:31:46.469Z,6.28
2019-06-10T02:34:24.320Z,4.50
2019-06-10T02:36:53.714Z,5.20
2019-06-10T02:39:33.430Z,6.45
2019-06-10T02:42:04.520Z,5.25
2019-06-10T02:44:37.802Z,4.55
2019-06-10T02:47:13.531Z,5.78
2019-06-10T02:49:56.937Z,6.72
2019-06-10T02:52:28.716Z,4.83
2019-06-10T02:54:54.157Z,6.08
2019-06-10T02:57:34.559Z,4.75
2019-06-10T02:59:59.467Z,5.10
2019-06-10T03:02:35.911Z,5.62
2019-06-10T03:05:05.042Z,6.20
2019-06-10T03:07:37.337Z,4.75
2019-06-10T03:10:09.065Z,4.95
2019-06-10T03:12:42.374Z,4.72
2019-06-10T03:15:15.489Z,6.10
2019-06-10T03:17:48.854Z,4.00
2019-06-10T03:20:23.082Z,4.72
2019-06-10T03:22:53.956Z,5.50
2019-06-10T03:25:27.895Z,7.40
2019-06-10T03:27:59.606Z,5.05
2019-06-10T03:30:47.442Z,5.60
2019-06-10T03:33:05.312Z,4.95
2019-06-10T03:35:37.396Z,5.67
2019-06-10T03:38:09.348Z,7.40
2019-06-10T03:40:43.301Z,7.35
2019-06-10T03:43:14.560Z,4.70
2019-06-10T03:45:46.352Z,6.47
2019-06-10T03:48:19.112Z,6.40
2019-06-10T03:50:52.438Z,4.60
2019-06-10T03:53:25.808Z,7.33
2019-06-10T03:55:57.686Z,7.00
2019-06-10T03:58:29.435Z,5.87
2019-06-10T04:01:03.221Z,7.05
2019-06-10T04:03:35.217Z,5.80
2019-06-10T04:06:06.969Z,4.47
2019-06-10T04:08:38.666Z,5.05
2019-06-10T04:11:12.168Z,6.83
2019-06-10T04:13:43.933Z,6.22
2019-06-10T04:16:15.708Z,4.72
2019-06-10T04:18:47.488Z,5.67
2019-06-10T04:21:20.313Z,6.40
2019-06-10T04:23:52.958Z,6.00
2019-06-10T04:26:28.062Z,8.30
2019-06-10T04:28:58.263Z,5.37
2019-06-10T04:31:29.947Z,5.90
2019-06-10T04:34:03.152Z,5.53
2019-06-10T04:36:35.286Z,5.67
2019-06-10T04:39:08.681Z,4.17
2019-06-10T04:41:42.423Z,6.28
2019-06-10T04:44:13.918Z,6.08
2019-06-10T04:46:45.603Z,5.05
2019-06-10T04:49:18.645Z,5.60
2019-06-10T04:51:52.433Z,6.97
2019-06-10T04:54:26.417Z,8.93
2019-06-10T04:56:57.252Z,5.28
2019-06-10T04:59:30.543Z,8.38
2019-06-10T05:02:05.532Z,7.22
2019-06-10T05:04:37.233Z,8.50
2019-06-10T05:07:08.948Z,5.90
2019-06-10T05:09:42.266Z,6.12
2019-06-10T05:12:14.099Z,8.88
2019-06-10T05:14:45.862Z,7.05
2019-06-10T05:17:17.618Z,8.25
2019-06-10T05:19:49.336Z,6.25
2019-06-10T05:22:23.645Z,8.40
2019-06-10T05:24:55.870Z,7.37
2019-06-10T05:27:28.584Z,8.35
2019-06-10T05:30:02.262Z,6.15
2019-06-10T05:32:34.595Z,6.08
2019-06-10T05:35:06.431Z,5.90
2019-06-10T05:37:38.175Z,6.58
2019-06-10T05:40:09.917Z,5.25
2019-06-10T05:42:42.613Z,6.42
2019-06-10T05:45:15.791Z,6.78
2019-06-10T05:47:47.514Z,7.70
2019-06-10T05:50:19.288Z,5.28
2019-06-10T05:52:52.048Z,5.72
2019-06-10T05:55:25.462Z,7.20
2019-06-10T05:57:57.627Z,4.97
2019-06-10T06:00:32.435Z,5.20
2019-06-10T06:03:04.550Z,5.12
2019-06-10T06:05:38.119Z,4.72
2019-06-10T06:08:12.401Z,4.92
2019-06-10T06:10:43.544Z,5.72
2019-06-10T06:13:15.262Z,9.13
2019-06-10T06:15:47.213Z,4.55
2019-06-10T06:18:18.919Z,5.83
2019-06-10T06:20:52.611Z,6.92
2019-06-10T06:23:24.033Z,8.63
2019-06-10T06:25:55.741Z,4.17
2019-06-10T06:28:27.934Z,4.95
2019-06-10T06:31:00.078Z,4.37
2019-06-10T06:33:35.865Z,4.60
2019-06-10T06:36:06.046Z,7.03
2019-06-10T06:38:38.464Z,4.53
2019-06-10T06:41:10.370Z,4.53
2019-06-10T06:43:45.203Z,6.87
2019-06-10T06:46:15.702Z,5.87
2019-06-10T06:48:47.535Z,7.53
2019-06-10T06:51:35.461Z,5.37
2019-06-10T06:53:56.078Z,6.65
2019-06-10T06:56:26.118Z,5.17
2019-06-10T06:58:57.845Z,6.67
2019-06-10T07:01:32.961Z,6.95
2019-06-10T07:04:03.397Z,9.70
2019-06-10T07:06:36.025Z,7.15
2019-06-10T07:09:08.898Z,7.08
2019-06-10T07:11:44.771Z,6.65
2019-06-10T07:14:14.271Z,7.70
2019-06-10T07:16:46.827Z,8.73
2019-06-10T07:19:18.696Z,8.05
2019-06-10T07:22:08.762Z,5.53
2019-06-10T07:24:24.248Z,7.35
2019-06-10T07:26:56.035Z,5.20
2019-06-10T07:29:27.775Z,4.45
2019-06-10T07:31:59.482Z,5.92
2019-06-10T07:34:33.910Z,8.53
2019-06-10T07:37:05.053Z,4.47
2019-06-10T07:39:39.709Z,6.20
2019-06-10T07:42:13.606Z,5.12
2019-06-10T07:44:45.458Z,5.80
2019-06-10T07:47:17.177Z,6.72
2019-06-10T07:49:48.910Z,5.53
2019-06-10T07:52:23.285Z,5.40
2019-06-10T07:54:54.110Z,4.50
2019-06-10T07:57:25.857Z,4.50
2019-06-10T07:59:57.603Z,4.97
2019-06-10T08:02:29.390Z,3.90
2019-06-10T08:05:03.525Z,4.50
2019-06-10T08:07:35.255Z,6.53
2019-06-10T08:10:07.135Z,4.90
2019-06-10T08:12:39.269Z,5.60
2019-06-10T08:15:12.580Z,3.55
2019-06-10T08:17:45.747Z,4.65
2019-06-10T08:20:36.971Z,5.53
2019-06-10T08:23:08.929Z,5.70
2019-06-10T08:25:43.760Z,5.95
2019-06-10T08:28:14.241Z,5.00
2019-06-10T08:30:46.217Z,6.50
2019-06-10T08:33:19.072Z,5.22
2019-06-10T08:35:57.334Z,4.97
2019-06-10T08:38:24.241Z,3.95
2019-06-10T08:40:57.087Z,3.87
2019-06-10T08:43:28.823Z,7.35
2019-06-10T08:46:02.524Z,4.62
2019-06-10T08:48:34.527Z,4.70
2019-06-10T08:51:07.572Z,5.80
2019-06-10T08:53:39.495Z,5.22
2019-06-10T08:56:13.036Z,6.05
2019-06-10T08:58:48.927Z,6.15
2019-06-10T09:01:19.005Z,4.10
2019-06-10T09:03:53.461Z,5.17
2019-06-10T09:06:24.224Z,4.37
2019-06-10T09:09:03.939Z,6.90
2019-06-10T09:11:49.484Z,4.70
2019-06-10T09:14:32.636Z,4.28
2019-06-10T09:17:13.451Z,6.50
2019-06-10T09:19:55.411Z,5.83
2019-06-10T09:22:28.789Z,6.72
2019-06-10T09:25:04.734Z,4.75
2019-06-10T09:27:58.349Z,6.22
2019-06-10T09:30:30.158Z,6.45
2019-06-10T09:33:04.737Z,6.50
2019-06-10T09:35:36.076Z,5.28
2019-06-10T09:38:07.925Z,6.37
2019-06-10T09:41:00.838Z,4.22
2019-06-10T09:43:26.328Z,4.90
2019-06-10T09:45:58.161Z,5.35
2019-06-10T09:48:29.932Z,5.42
2019-06-10T09:51:02.691Z,6.22
2019-06-10T09:53:42.350Z,6.60
2019-06-10T09:56:08.543Z,3.62
2019-06-10T09:58:40.913Z,3.05
2019-06-10T10:01:14.238Z,5.85
2019-06-10T10:03:53.896Z,5.72
2019-06-10T10:06:23.793Z,4.25
2019-06-10T10:08:58.261Z,2.95
2019-06-10T10:11:28.966Z,3.90
2019-06-10T10:14:05.319Z,2.50
2019-06-10T10:16:34.178Z,4.05
2019-06-10T10:19:05.970Z,3.60
2019-06-10T10:21:40.629Z,3.02
2019-06-10T10:24:14.923Z,4.70
2019-06-10T10:26:47.147Z,3.45
2019-06-10T10:29:20.057Z,2.30
2019-06-10T10:31:52.780Z,2.15
2019-06-10T10:34:29.780Z,2.62
2019-06-10T10:37:02.857Z,2.50
2019-06-10T10:39:35.014Z,5.08
2019-06-10T10:42:06.760Z,3.52
2019-06-10T10:44:38.753Z,3.20
2019-06-10T10:47:12.435Z,3.40
2019-06-10T10:49:45.003Z,3.25
2019-06-10T10:52:18.671Z,2.80
2019-06-10T10:54:51.878Z,2.52
2019-06-10T10:57:23.771Z,1.98
2019-06-10T10:59:56.225Z,5.10
2019-06-10T11:02:28.260Z,2.08
2019-06-10T11:05:00.027Z,4.22
2019-06-10T11:07:34.062Z,2.15
2019-06-10T11:10:06.799Z,3.98
2019-06-10T11:12:38.620Z,4.40
2019-06-10T11:15:13.067Z,2.98
2019-06-10T11:17:45.059Z,2.12
2019-06-10T11:20:16.861Z,2.67
2019-06-10T11:22:49.610Z,2.67
2019-06-10T11:25:23.210Z,2.30
2019-06-10T11:27:56.073Z,9.68
2019-06-10T11:30:28.730Z,2.40
2019-06-10T11:33:03.204Z,4.33
2019-06-10T11:35:34.028Z,3.50
2019-06-10T11:38:05.943Z,1.95
2019-06-10T11:40:37.655Z,2.25
2019-06-10T11:43:13.057Z,2.30
2019-06-10T11:45:48.329Z,3.37
2019-06-10T11:48:17.649Z,3.27
2019-06-10T11:50:49.363Z,2.90
2019-06-10T11:53:22.920Z,1.77
2019-06-10T11:55:55.889Z,2.52
2019-06-10T11:58:28.210Z,3.58
2019-06-10T12:01:03.201Z,1.50
2019-06-10T12:03:34.299Z,3.33
2019-06-10T12:06:08.153Z,3.22
2019-06-10T12:08:39.848Z,2.87
2019-06-10T12:11:12.689Z,3.25
2019-06-10T12:13:45.139Z,2.30
2019-06-10T12:18:51.646Z,2.05
2019-06-10T12:21:24.142Z,3.10
2019-06-10T12:24:00.458Z,3.37
2019-06-10T12:26:29.534Z,2.80
2019-06-10T12:29:05.780Z,4.05
2019-06-10T12:31:35.793Z,2.95
2019-06-10T12:34:07.547Z,3.25
2019-06-10T12:36:39.247Z,2.12
2019-06-10T12:39:14.887Z,2.67
2019-06-10T12:41:44.834Z,2.22
2019-06-10T12:44:16.958Z,5.42
2019-06-10T12:46:48.671Z,4.40
2019-06-10T12:49:20.394Z,3.22
2019-06-10T12:51:52.880Z,4.75
2019-06-10T12:54:26.190Z,3.95
2019-06-10T12:57:00.459Z,4.83
2019-06-10T12:59:34.016Z,5.28
2019-06-10T13:02:15.381Z,5.72
2019-06-10T13:04:39.226Z,6.03
2019-06-10T13:07:12.524Z,4.30
2019-06-10T13:09:45.293Z,4.78
2019-06-10T13:12:16.997Z,3.55
2019-06-10T13:14:48.753Z,6.97
2019-06-10T13:17:20.723Z,4.20
2019-06-10T13:19:52.459Z,4.70
2019-06-10T13:22:24.627Z,3.52
2019-06-10T13:24:56.543Z,4.75
2019-06-10T13:27:29.440Z,3.47
2019-06-10T13:30:02.619Z,4.00
2019-06-10T13:32:34.503Z,3.33
2019-06-10T13:35:07.701Z,4.92
2019-06-10T13:37:39.497Z,4.20
2019-06-10T13:40:13.005Z,4.72
2019-06-10T13:42:44.703Z,5.12
2019-06-10T13:45:17.711Z,3.33
2019-06-10T13:47:49.450Z,8.53
2019-06-10T13:50:22.068Z,4.45
2019-06-10T13:53:03.751Z,4.97
2019-06-10T13:55:57.006Z,4.35
2019-06-10T13:58:29.725Z,3.72
2019-06-10T14:01:06.785Z,2.80
2019-06-10T14:03:39.743Z,1.90
2019-06-10T14:06:32.693Z,6.50
2019-06-10T14:08:54.878Z,5.35
2019-06-10T14:11:30.183Z,3.12
2019-06-10T14:14:02.606Z,2.83
2019-06-10T14:16:35.495Z,1.92
2019-06-10T14:19:11.562Z,4.20
2019-06-10T14:21:42.645Z,3.87
2019-06-10T14:24:16.113Z,2.37
2019-06-10T14:26:49.793Z,2.60
2019-06-10T14:29:21.658Z,4.65
2019-06-10T14:31:53.704Z,4.53
2019-06-10T14:34:25.434Z,4.62
2019-06-10T14:36:57.279Z,3.85
2019-06-10T14:39:29.109Z,2.45
2019-06-10T14:42:03.323Z,3.20
2019-06-10T14:44:34.379Z,4.70
2019-06-10T14:47:06.703Z,4.42
2019-06-10T14:49:38.605Z,2.20
2019-06-10T14:52:13.895Z,1.65
2019-06-10T14:54:45.357Z,3.72
2019-06-10T14:57:18.015Z,2.90
2019-06-10T14:59:52.972Z,2.45
2019-06-10T15:02:24.186Z,3.75
2019-06-10T15:04:56.154Z,5.60
2019-06-10T15:07:28.219Z,2.27
2019-06-10T15:10:00.161Z,2.87
2019-06-10T15:12:34.411Z,2.85
2019-06-10T15:15:08.234Z,3.33
2019-06-10T15:17:43.054Z,3.05
2019-06-10T15:20:15.776Z,2.80
2019-06-10T15:22:47.883Z,3.00
2019-06-10T15:25:25.420Z,3.12
2019-06-10T15:27:53.802Z,2.42
2019-06-10T15:30:28.081Z,5.35
2019-06-10T15:32:59.587Z,2.83
2019-06-10T15:35:32.782Z,2.25
2019-06-10T15:38:05.389Z,3.45
2019-06-10T15:40:37.392Z,4.50
2019-06-10T15:43:09.935Z,5.15
2019-06-10T15:45:43.237Z,1.42
2019-06-10T15:48:18.216Z,2.10
2019-06-10T15:50:49.870Z,4.45
2019-06-10T15:53:25.691Z,4.35
2019-06-10T15:56:14.488Z,1.67
2019-06-10T15:58:33.499Z,3.90
2019-06-10T16:01:07.362Z,1.72
2019-06-10T16:03:42.209Z,3.98
2019-06-10T16:06:16.196Z,2.77
2019-06-10T16:08:48.162Z,2.00
2019-06-10T16:11:24.221Z,3.45
2019-06-10T16:13:53.843Z,1.20
2019-06-10T16:16:25.767Z,3.02
2019-06-10T16:18:57.722Z,3.22
2019-06-10T16:21:31.407Z,3.75
2019-06-10T16:24:04.465Z,2.22
2019-06-10T16:26:36.386Z,3.75
2019-06-10T16:29:08.379Z,1.62
2019-06-10T16:31:42.567Z,1.22
2019-06-10T16:34:14.699Z,4.47
2019-06-10T16:36:46.707Z,2.98
2019-06-10T16:39:19.023Z,4.80
2019-06-10T16:41:52.251Z,1.87
2019-06-10T16:44:26.316Z,1.95
2019-06-10T16:46:58.393Z,2.20
2019-06-10T16:49:32.715Z,3.25
2019-06-10T16:52:05.394Z,3.83
2019-06-10T16:54:37.640Z,1.17
2019-06-10T16:57:12.194Z,1.72
2019-06-10T16:59:43.764Z,2.27
2019-06-10T17:02:17.590Z,1.67
2019-06-10T17:04:52.505Z,3.75
2019-06-10T17:07:24.740Z,1.77
2019-06-10T17:09:56.907Z,1.07
2019-06-10T17:12:30.220Z,0.95
2019-06-10T17:15:04.142Z,1.22
2019-06-10T17:17:36.223Z,3.60
2019-06-10T17:20:08.942Z,2.52
2019-06-10T17:22:43.321Z,1.35
2019-06-10T17:25:15.431Z,2.05
2019-06-10T17:27:47.639Z,1.75
2019-06-10T17:30:23.673Z,1.20
2019-06-10T17:32:54.358Z,2.52
2019-06-10T17:35:26.352Z,1.20
2019-06-10T17:37:58.729Z,1.70
2019-06-10T17:40:31.659Z,4.95
2019-06-10T17:43:04.373Z,2.08
2019-06-10T17:45:36.695Z,4.95
2019-06-10T17:48:08.794Z,3.15
2019-06-10T17:50:42.897Z,1.22
2019-06-10T17:53:15.052Z,1.37
2019-06-10T17:55:48.075Z,1.77
2019-06-10T17:58:33.502Z,2.05
2019-06-10T18:00:53.742Z,2.35
2019-06-10T18:03:26.574Z,2.27
2019-06-10T18:05:59.655Z,1.20
2019-06-10T18:08:34.958Z,2.15
2019-06-10T18:11:05.776Z,1.57
2019-06-10T18:13:37.847Z,1.42
2019-06-10T18:16:09.921Z,2.65
2019-06-10T18:18:42.647Z,2.77
2019-06-10T18:21:14.899Z,3.67
2019-06-10T18:23:47.291Z,1.62
2019-06-10T18:26:19.593Z,2.50
2019-06-10T18:29:01.865Z,3.35
2019-06-10T18:31:25.686Z,1.80
2019-06-10T18:33:57.920Z,2.50
2019-06-10T18:36:32.661Z,3.08
2019-06-10T18:39:06.094Z,3.27
2019-06-10T18:41:39.907Z,2.10
2019-06-10T18:44:22.399Z,2.47
2019-06-10T18:46:46.593Z,4.08
2019-06-10T18:49:18.927Z,4.70
2019-06-10T18:51:53.158Z,1.42
2019-06-10T18:54:25.068Z,2.35
2019-06-10T18:56:57.053Z,5.35
2019-06-10T18:59:32.139Z,1.60
2019-06-10T19:02:06.179Z,3.70
2019-06-10T19:04:38.375Z,4.05
2019-06-10T19:07:10.423Z,2.17
2019-06-10T19:09:47.819Z,2.42
2019-06-10T19:12:16.150Z,3.60
2019-06-10T19:14:48.097Z,3.08
2019-06-10T19:17:20.278Z,4.37
2019-06-10T19:19:53.291Z,1.87
2019-06-10T19:22:27.533Z,3.67
2019-06-10T19:24:59.685Z,2.67
2019-06-10T19:27:34.910Z,1.75
2019-06-10T19:30:08.409Z,2.85
2019-06-10T19:32:44.170Z,2.37
2019-06-10T19:35:14.802Z,2.80
2019-06-10T19:37:46.861Z,1.98
2019-06-10T19:40:19.080Z,3.92
2019-06-10T19:42:52.555Z,2.27
2019-06-10T19:45:24.661Z,3.92
2019-06-10T19:47:56.901Z,3.95
2019-06-10T19:50:28.998Z,2.70
2019-06-10T19:53:02.665Z,3.77
2019-06-10T19:55:35.192Z,4.28
2019-06-10T19:58:10.417Z,1.75
2019-06-10T20:00:50.231Z,4.97
2019-06-10T20:03:15.635Z,4.58
2019-06-10T20:05:52.472Z,6.10
2019-06-10T20:08:23.638Z,3.20
2019-06-10T20:10:56.068Z,2.50
2019-06-10T20:13:28.804Z,5.22
2019-06-10T20:16:02.986Z,2.75
2019-06-10T20:18:35.696Z,1.77
2019-06-10T20:21:07.964Z,2.50
2019-06-10T20:23:42.735Z,1.17
2019-06-10T20:26:14.167Z,3.65
2019-06-10T20:28:51.936Z,3.95
2019-06-10T20:31:22.172Z,3.05
2019-06-10T20:33:54.665Z,1.42
2019-06-10T20:36:27.353Z,2.58
2019-06-10T20:38:59.462Z,2.42
2019-06-10T20:41:31.461Z,2.20
2019-06-10T20:44:03.445Z,3.60
2019-06-10T20:46:35.411Z,3.62
2019-06-10T20:49:07.481Z,3.92
2019-06-10T20:51:50.148Z,1.50
2019-06-10T20:54:13.845Z,2.55
2019-06-10T20:56:48.625Z,1.72
2019-06-10T20:59:22.535Z,1.47
2019-06-10T21:01:53.757Z,1.32
2019-06-10T21:04:26.031Z,3.72
2019-06-10T21:07:02.500Z,1.57
2019-06-10T21:09:37.423Z,2.20
2019-06-10T21:12:09.397Z,2.67
2019-06-10T21:14:42.737Z,1.47
2019-06-10T21:17:14.999Z,1.87
2019-06-10T21:19:47.925Z,2.65
2019-06-10T21:22:20.993Z,1.50
2019-06-10T21:24:53.546Z,2.72
2019-06-10T21:27:25.916Z,1.65
2019-06-10T21:29:57.917Z,3.60
2019-06-10T21:32:32.549Z,2.55
2019-06-10T21:35:03.704Z,1.70
2019-06-10T21:37:35.813Z,4.35
2019-06-10T21:40:08.373Z,2.05
2019-06-10T21:42:41.592Z,3.80
2019-06-10T21:45:13.922Z,3.05
2019-06-10T21:47:47.066Z,1.77
2019-06-10T21:50:19.560Z,2.90
2019-06-10T21:52:53.500Z,2.72
2019-06-10T21:55:26.368Z,2.50
2019-06-10T21:57:58.293Z,3.55
2019-06-10T22:00:51.854Z,2.37
2019-06-10T22:03:12.709Z,3.02
2019-06-10T22:05:45.829Z,4.12
2019-06-10T22:08:21.054Z,7.65
2019-06-10T22:10:55.037Z,4.62
2019-06-10T22:13:26.727Z,2.52
2019-06-10T22:15:58.649Z,7.58
2019-06-10T22:18:32.204Z,2.33
2019-06-10T22:21:04.446Z,5.50
2019-06-10T22:23:36.374Z,3.67
2019-06-10T22:26:08.279Z,3.37
2019-06-10T22:28:43.285Z,2.12
2019-06-10T22:31:22.373Z,7.65
2019-06-10T22:33:49.501Z,4.40
2019-06-10T22:36:23.196Z,1.98
2019-06-10T22:38:58.651Z,2.60
2019-06-10T22:41:29.101Z,5.10
2019-06-10T22:44:03.483Z,6.67
2019-06-10T22:46:35.918Z,2.60
2019-06-10T22:49:09.564Z,3.12
2019-06-10T22:51:42.844Z,4.90
2019-06-10T22:54:15.128Z,3.45
2019-06-10T22:56:47.368Z,4.15
2019-06-10T22:59:19.293Z,4.10
2019-06-10T23:01:53.800Z,5.80
2019-06-10T23:04:28.615Z,4.17
2019-06-10T23:07:02.849Z,4.30
2019-06-10T23:09:34.434Z,3.90
2019-06-10T23:12:06.505Z,2.58
2019-06-10T23:14:38.561Z,3.17
2019-06-10T23:17:22.042Z,2.77
2019-06-10T23:19:59.844Z,2.62
2019-06-10T23:22:31.759Z,4.53
2019-06-10T23:25:03.732Z,2.87
2019-06-10T23:27:35.643Z,2.85
2019-06-10T23:30:11.844Z,3.27
2019-06-10T23:32:44.914Z,3.05
2019-06-10T23:35:16.941Z,5.17
2019-06-10T23:37:50.513Z,2.58
2019-06-10T23:40:23.639Z,4.80
2019-06-10T23:42:57.259Z,3.17
2019-06-10T23:45:32.604Z,2.40
2019-06-10T23:48:05.192Z,2.35
2019-06-10T23:50:37.389Z,2.80
2019-06-10T23:53:09.308Z,2.70
2019-06-10T23:55:42.736Z,4.60
2019-06-10T23:58:16.149Z,2.25
